Time;durP1;ratioP1;P1;durP2;ratioP2;P2;SDS_P1;SDS_P2;PMS_P1;PMS_P2;Temp;Humidity;BMP_temperature;BMP_pressure;BME280_temperature;BME280_humidity;BME280_pressure;Samples;Min_cycle;Max_cycle;Signal;HPM_P1;HPM_P2
2021/04/06 00:02:12;;;;;;;5.13;1.93;;;-0.40;99.90;;;;;;5082880;28;20051;-66
2021/04/06 00:04:44;;;;;;;5.67;2.40;;;-0.40;99.90;;;;;;5070000;28;20044;-66
2021/04/06 00:07:15;;;;;;;8.50;1.97;;;-0.30;99.90;;;;;;5084230;28;20047;-65
2021/04/06 00:09:44;;;;;;;7.77;2.23;;;-0.40;99.90;;;;;;5080169;28;20044;-65
2021/04/06 00:12:15;;;;;;;5.27;1.97;;;-0.30;99.90;;;;;;5085284;28;20052;-66
2021/04/06 00:14:43;;;;;;;13.13;2.70;;;-0.40;99.90;;;;;;5089026;28;20081;-66
2021/04/06 00:17:12;;;;;;;8.20;2.30;;;-0.40;99.90;;;;;;5084313;28;20044;-66
2021/04/06 00:19:40;;;;;;;7.33;2.43;;;-0.30;99.90;;;;;;5089517;28;20094;-65
2021/04/06 00:22:08;;;;;;;4.93;2.30;;;-0.40;99.90;;;;;;5081601;28;20051;-65
2021/04/06 00:24:37;;;;;;;9.47;2.43;;;-0.30;99.90;;;;;;5085338;28;20056;-65
2021/04/06 00:27:12;;;;;;;7.70;2.47;;;-0.30;99.90;;;;;;5085055;28;20040;-65
2021/04/06 00:29:41;;;;;;;6.33;2.10;;;-0.40;99.90;;;;;;5083772;28;20145;-65
2021/04/06 00:32:09;;;;;;;6.13;2.30;;;-0.30;99.90;;;;;;5083662;28;20052;-66
2021/04/06 00:34:38;;;;;;;5.97;2.13;;;-0.40;99.90;;;;;;5081278;28;20479;-64
2021/04/06 00:37:08;;;;;;;7.30;2.57;;;-0.40;99.90;;;;;;5083856;28;20082;-65
2021/04/06 00:39:38;;;;;;;5.27;2.30;;;-0.50;99.90;;;;;;5084230;28;20055;-66
2021/04/06 00:42:07;;;;;;;7.93;2.57;;;-0.40;99.90;;;;;;5080586;28;20071;-65
2021/04/06 00:44:39;;;;;;;7.77;2.43;;;-0.50;99.90;;;;;;5086027;28;20467;-65
2021/04/06 00:47:06;;;;;;;8.17;2.10;;;-0.50;99.90;;;;;;5082726;28;20730;-65
2021/04/06 00:49:35;;;;;;;12.37;2.83;;;-0.50;99.90;;;;;;5085425;28;20048;-64
2021/04/06 00:52:04;;;;;;;6.53;2.40;;;-0.50;99.90;;;;;;5085663;28;20393;-65
2021/04/06 00:54:34;;;;;;;5.80;2.37;;;-0.40;99.90;;;;;;5081904;28;20044;-64
2021/04/06 00:57:03;;;;;;;8.60;2.30;;;-0.50;99.90;;;;;;5084849;28;20169;-64
2021/04/06 00:59:31;;;;;;;7.63;2.43;;;-0.50;99.90;;;;;;5084535;28;20082;-64
2021/04/06 01:02:00;;;;;;;4.57;2.00;;;-0.50;99.90;;;;;;5086475;28;20056;-65
2021/04/06 01:04:30;;;;;;;7.70;2.07;;;-0.60;99.90;;;;;;5085417;28;20703;-65
2021/04/06 01:07:02;;;;;;;8.50;2.43;;;-0.50;99.90;;;;;;5084724;28;20055;-65
2021/04/06 01:09:36;;;;;;;6.63;2.67;;;-0.50;99.90;;;;;;5086400;28;20044;-64
2021/04/06 01:12:04;;;;;;;8.23;2.60;;;-0.50;99.90;;;;;;5083971;28;20416;-64
2021/04/06 01:14:32;;;;;;;5.67;2.40;;;-0.50;99.90;;;;;;5083461;28;20408;-65
2021/04/06 01:17:00;;;;;;;9.57;3.07;;;-0.50;99.90;;;;;;5086886;28;20126;-65
2021/04/06 01:19:28;;;;;;;11.17;2.87;;;-0.50;99.90;;;;;;5082539;28;20067;-65
2021/04/06 01:21:57;;;;;;;9.83;2.53;;;-0.60;99.90;;;;;;5086545;28;20470;-66
2021/04/06 01:24:25;;;;;;;8.23;2.83;;;-0.50;99.90;;;;;;5087020;28;20523;-66
2021/04/06 01:26:52;;;;;;;9.70;2.70;;;-0.50;99.90;;;;;;5083181;28;20144;-66
2021/04/06 01:29:18;;;;;;;10.50;3.00;;;-0.60;99.90;;;;;;5084046;28;20048;-65
2021/04/06 01:31:46;;;;;;;9.13;2.87;;;-0.50;99.90;;;;;;5082471;28;20105;-66
2021/04/06 01:34:13;;;;;;;8.57;2.47;;;-0.60;99.90;;;;;;5084630;28;20051;-66
2021/04/06 01:36:40;;;;;;;6.90;2.70;;;-0.70;99.90;;;;;;5084889;28;20052;-66
2021/04/06 01:39:07;;;;;;;8.33;2.37;;;-0.80;99.90;;;;;;5082066;28;20054;-65
2021/04/06 01:41:35;;;;;;;7.57;2.67;;;-0.70;99.90;;;;;;5086928;28;20488;-66
2021/04/06 01:44:02;;;;;;;9.27;2.30;;;-0.70;99.90;;;;;;5081313;28;20036;-66
2021/04/06 01:46:36;;;;;;;8.77;3.23;;;-0.80;99.90;;;;;;5082926;28;20518;-65
2021/04/06 01:49:03;;;;;;;10.70;2.60;;;-0.70;99.90;;;;;;5084773;28;20083;-65
2021/04/06 01:51:30;;;;;;;5.80;2.90;;;-0.70;99.90;;;;;;5082739;28;20049;-66
2021/04/06 01:53:57;;;;;;;6.37;2.57;;;-0.70;99.90;;;;;;5084810;28;20089;-66
2021/04/06 01:56:25;;;;;;;5.67;1.70;;;-0.70;99.90;;;;;;5083753;28;20524;-66
2021/04/06 01:58:57;;;;;;;8.07;2.37;;;-0.60;99.90;;;;;;5084947;28;20036;-66
2021/04/06 02:01:24;;;;;;;4.90;1.63;;;-0.60;99.90;;;;;;5084280;28;20071;-65
2021/04/06 02:03:56;;;;;;;12.43;2.57;;;-0.60;99.90;;;;;;5081360;28;20823;-65
2021/04/06 02:06:25;;;;;;;10.93;2.80;;;-0.60;99.90;;;;;;5081818;28;20048;-66
2021/04/06 02:08:53;;;;;;;6.87;2.60;;;-0.60;99.90;;;;;;5079182;28;20056;-66
2021/04/06 02:11:22;;;;;;;11.17;2.00;;;-0.60;99.90;;;;;;5086834;28;20060;-65
2021/04/06 02:13:50;;;;;;;2.90;1.50;;;-0.70;99.90;;;;;;5082979;28;20139;-64
2021/04/06 02:16:17;;;;;;;6.70;2.17;;;-0.60;99.90;;;;;;5080158;28;20044;-65
2021/04/06 02:18:51;;;;;;;5.77;1.87;;;-0.70;99.90;;;;;;5086866;28;20078;-66
2021/04/06 02:21:17;;;;;;;3.37;1.57;;;-0.70;99.90;;;;;;5084601;28;20117;-66
2021/04/06 02:23:45;;;;;;;7.17;2.60;;;-0.70;99.90;;;;;;5075409;28;20549;-66
2021/04/06 02:26:14;;;;;;;4.90;1.67;;;-0.80;99.90;;;;;;5086463;28;20059;-66
2021/04/06 02:28:41;;;;;;;9.03;2.90;;;-0.70;99.90;;;;;;5078276;28;20048;-66
2021/04/06 02:31:09;;;;;;;6.00;1.63;;;-0.70;99.90;;;;;;5083455;28;20385;-66
2021/04/06 02:33:38;;;;;;;5.80;2.20;;;-0.80;99.90;;;;;;5079402;28;20044;-64
2021/04/06 02:36:07;;;;;;;8.13;2.30;;;-0.80;99.90;;;;;;5079212;28;20565;-64
2021/04/06 02:38:35;;;;;;;5.53;1.57;;;-0.70;99.90;;;;;;5080356;28;20169;-65
2021/04/06 02:41:06;;;;;;;4.53;1.60;;;-0.70;99.90;;;;;;5078341;28;20404;-65
2021/04/06 02:43:48;;;;;;;4.57;1.90;;;-0.80;99.90;;;;;;5081362;28;20044;-66
2021/04/06 02:46:16;;;;;;;6.70;1.90;;;-0.70;99.90;;;;;;5077415;28;20059;-65
2021/04/06 02:48:44;;;;;;;7.60;1.63;;;-0.70;99.90;;;;;;5085243;28;20052;-64
2021/04/06 02:51:10;;;;;;;4.37;1.70;;;-0.70;99.90;;;;;;5080375;28;20539;-65
2021/04/06 02:53:38;;;;;;;5.27;1.83;;;-0.70;99.90;;;;;;5082571;28;20113;-65
2021/04/06 02:56:06;;;;;;;4.63;1.43;;;-0.60;99.90;;;;;;5078088;28;20074;-65
2021/04/06 02:58:38;;;;;;;5.40;2.03;;;-0.60;99.90;;;;;;5082494;28;20066;-64
2021/04/06 03:01:22;;;;;;;6.90;1.87;;;-0.60;99.90;;;;;;5084008;28;20040;-65
2021/04/06 03:03:50;;;;;;;6.70;1.90;;;-0.60;99.90;;;;;;5083495;28;20097;-65
2021/04/06 03:06:16;;;;;;;7.50;2.00;;;-0.60;99.90;;;;;;5086099;28;20040;-64
2021/04/06 03:08:43;;;;;;;6.47;1.63;;;-0.60;99.90;;;;;;5086275;28;20129;-65
2021/04/06 03:11:11;;;;;;;9.50;1.67;;;-0.60;99.90;;;;;;5085881;28;20048;-65
2021/04/06 03:13:40;;;;;;;2.83;1.07;;;-0.50;99.90;;;;;;5084923;28;20055;-65
2021/04/06 03:16:09;;;;;;;5.63;1.57;;;-0.60;99.90;;;;;;5085757;28;20044;-64
2021/04/06 03:18:38;;;;;;;2.57;1.10;;;-0.50;99.90;;;;;;5085731;28;20044;-64
2021/04/06 03:21:07;;;;;;;5.67;1.50;;;-0.40;99.90;;;;;;5086248;28;20048;-64
2021/04/06 03:23:35;;;;;;;9.07;2.20;;;-0.40;99.90;;;;;;5085302;28;20499;-65
2021/04/06 03:26:03;;;;;;;1.63;0.60;;;-0.40;99.90;;;;;;5066987;28;20056;-64
2021/04/06 03:28:33;;;;;;;5.03;1.33;;;-0.40;99.90;;;;;;5065448;28;20525;-65
2021/04/06 03:31:09;;;;;;;3.70;1.07;;;-0.40;99.90;;;;;;5065618;28;20079;-64
2021/04/06 03:33:39;;;;;;;3.57;1.13;;;-0.40;99.90;;;;;;5064418;28;20044;-65
2021/04/06 03:36:07;;;;;;;3.47;1.53;;;-0.50;99.90;;;;;;5065766;28;20425;-65
2021/04/06 03:38:37;;;;;;;9.10;1.40;;;-0.30;99.90;;;;;;5073679;28;20040;-65
2021/04/06 03:41:04;;;;;;;3.97;1.20;;;-0.20;99.90;;;;;;5084244;28;20056;-65
2021/04/06 03:43:40;;;;;;;7.20;1.30;;;-0.20;99.90;;;;;;5078575;28;20076;-65
2021/04/06 03:46:07;;;;;;;6.75;1.95;;;-0.20;99.90;;;;;;5082336;28;20048;-64
2021/04/06 03:48:35;;;;;;;7.63;2.17;;;-0.20;99.90;;;;;;5083499;28;20055;-64
2021/04/06 03:51:04;;;;;;;4.87;1.10;;;-0.20;99.90;;;;;;5075600;28;20495;-65
2021/04/06 03:53:40;;;;;;;6.77;1.53;;;-0.20;99.90;;;;;;5063599;28;20060;-65
2021/04/06 03:56:07;;;;;;;8.18;1.77;;;-0.10;99.90;;;;;;5062817;28;20637;-65
2021/04/06 03:58:37;;;;;;;4.17;1.23;;;0.00;99.90;;;;;;5077956;28;20043;-65
2021/04/06 04:01:05;;;;;;;7.43;1.50;;;0.00;99.90;;;;;;5084781;28;20081;-64
2021/04/06 04:03:32;;;;;;;8.87;1.47;;;0.00;99.90;;;;;;5083896;28;20071;-65
2021/04/06 04:05:58;;;;;;;12.03;1.77;;;0.10;99.90;;;;;;5085382;28;20048;-64
2021/04/06 04:08:25;;;;;;;7.40;2.07;;;-0.10;99.90;;;;;;5085929;28;20093;-65
2021/04/06 04:10:52;;;;;;;9.43;2.10;;;0.00;99.90;;;;;;5085612;28;20051;-66
2021/04/06 04:13:19;;;;;;;5.50;1.13;;;-0.10;99.90;;;;;;5084993;28;20044;-66
2021/04/06 04:15:45;;;;;;;6.63;1.23;;;-0.10;99.90;;;;;;5094398;28;20090;-64
2021/04/06 04:18:12;;;;;;;4.50;1.20;;;-0.10;99.90;;;;;;5094403;28;20548;-64
2021/04/06 04:20:38;;;;;;;5.27;1.30;;;-0.20;99.90;;;;;;5093218;28;20048;-65
2021/04/06 04:23:05;;;;;;;6.37;0.93;;;-0.10;99.90;;;;;;5084168;28;20480;-65
2021/04/06 04:25:32;;;;;;;5.23;1.40;;;-0.10;99.90;;;;;;5083644;28;20066;-65
2021/04/06 04:27:59;;;;;;;13.20;1.83;;;-0.10;99.90;;;;;;5068142;28;20197;-65
2021/04/06 04:30:37;;;;;;;2.27;0.80;;;-0.10;99.90;;;;;;5065125;28;20416;-64
2021/04/06 04:33:04;;;;;;;7.13;1.50;;;0.00;99.90;;;;;;5064142;28;20055;-65
2021/04/06 04:35:31;;;;;;;9.93;1.63;;;0.00;99.90;;;;;;5068829;28;20051;-65
2021/04/06 04:37:57;;;;;;;2.37;0.73;;;0.10;99.90;;;;;;5084932;28;20048;-65
2021/04/06 04:40:24;;;;;;;8.37;1.60;;;0.00;99.90;;;;;;5084769;28;20048;-65
2021/04/06 04:42:52;;;;;;;6.07;1.63;;;0.00;99.90;;;;;;5082990;28;20546;-65
2021/04/06 04:45:20;;;;;;;10.33;1.80;;;-0.10;99.90;;;;;;5085288;28;20056;-65
2021/04/06 04:47:47;;;;;;;4.80;1.37;;;0.00;99.90;;;;;;5092420;28;20048;-65
2021/04/06 04:50:16;;;;;;;9.43;1.70;;;-0.10;99.90;;;;;;5087671;28;20052;-64
2021/04/06 04:52:46;;;;;;;7.67;2.10;;;0.00;99.90;;;;;;5084750;28;20063;-64
2021/04/06 04:55:14;;;;;;;4.50;1.43;;;0.10;99.90;;;;;;5084307;28;20055;-66
2021/04/06 04:57:42;;;;;;;8.73;1.67;;;0.00;99.90;;;;;;5085180;28;20047;-66
2021/04/06 05:00:10;;;;;;;5.33;1.70;;;0.10;99.90;;;;;;5084569;28;20762;-66
2021/04/06 05:02:38;;;;;;;7.57;2.40;;;0.10;99.90;;;;;;5079097;28;20040;-66
2021/04/06 05:05:06;;;;;;;5.83;1.60;;;0.00;99.90;;;;;;5064039;28;20775;-66
2021/04/06 05:07:32;;;;;;;7.73;1.43;;;0.10;99.90;;;;;;5067652;28;20098;-66
2021/04/06 05:09:59;;;;;;;6.53;1.77;;;0.00;99.90;;;;;;5067608;28;20091;-66
2021/04/06 05:12:25;;;;;;;6.30;1.43;;;0.10;99.90;;;;;;5067454;28;20090;-66
2021/04/06 05:14:52;;;;;;;6.20;1.90;;;0.20;99.90;;;;;;5067714;28;20055;-66
2021/04/06 05:17:18;;;;;;;5.20;2.00;;;0.30;99.90;;;;;;5067828;28;20045;-66
2021/04/06 05:19:46;;;;;;;10.87;1.90;;;0.30;99.90;;;;;;5067971;28;20084;-66
2021/04/06 05:22:12;;;;;;;4.50;1.50;;;0.20;99.90;;;;;;5067700;28;20044;-66
2021/04/06 05:24:39;;;;;;;8.03;1.93;;;0.20;99.90;;;;;;5066086;28;20451;-66
2021/04/06 05:27:05;;;;;;;4.27;1.00;;;0.20;99.90;;;;;;5067638;28;20498;-66
2021/04/06 05:29:32;;;;;;;5.37;1.40;;;0.20;99.90;;;;;;5068334;28;20428;-66
2021/04/06 05:31:58;;;;;;;13.00;2.40;;;0.20;99.90;;;;;;5067559;28;20052;-66
2021/04/06 05:34:25;;;;;;;8.30;1.77;;;0.30;99.90;;;;;;5065483;28;20446;-66
2021/04/06 05:36:52;;;;;;;4.07;1.63;;;0.20;99.90;;;;;;5070881;28;20087;-67
2021/04/06 05:39:19;;;;;;;9.33;1.50;;;0.40;99.90;;;;;;5080138;28;20048;-66
2021/04/06 05:41:47;;;;;;;5.77;1.93;;;0.30;99.90;;;;;;5073643;28;20048;-66
2021/04/06 05:44:14;;;;;;;8.97;2.40;;;0.40;99.90;;;;;;5067327;28;20429;-66
2021/04/06 05:46:44;;;;;;;12.37;2.70;;;0.60;99.90;;;;;;5067699;28;20129;-66
2021/04/06 05:49:12;;;;;;;10.83;2.10;;;0.70;99.90;;;;;;5067335;28;20528;-66
2021/04/06 05:51:39;;;;;;;12.30;4.00;;;0.60;99.90;;;;;;5067985;28;20044;-66
2021/04/06 05:54:09;;;;;;;10.70;2.87;;;0.70;99.90;;;;;;5066581;28;20484;-66
2021/04/06 05:56:35;;;;;;;7.63;2.20;;;0.60;99.90;;;;;;5068200;28;20048;-66
2021/04/06 05:59:02;;;;;;;6.53;2.60;;;0.50;99.90;;;;;;5068021;28;20052;-66
2021/04/06 06:01:29;;;;;;;8.60;2.30;;;0.60;99.90;;;;;;5327707;22;20023;-71
2021/04/06 06:03:57;;;;;;;8.40;2.83;;;0.50;99.90;;;;;;5096651;28;20047;-71
2021/04/06 06:06:24;;;;;;;8.40;2.30;;;0.60;99.90;;;;;;5096410;28;20047;-73
2021/04/06 06:08:52;;;;;;;9.27;2.50;;;0.80;99.90;;;;;;5090533;28;20052;-70
2021/04/06 06:11:20;;;;;;;8.33;2.33;;;0.90;99.90;;;;;;5091447;28;20055;-70
2021/04/06 06:13:46;;;;;;;6.13;2.27;;;1.00;99.90;;;;;;5089459;28;20056;-70
2021/04/06 06:16:16;;;;;;;7.63;2.20;;;1.10;99.90;;;;;;5089369;28;20487;-71
2021/04/06 06:19:00;;;;;;;6.53;2.70;;;1.20;99.90;;;;;;5093133;28;20062;-73
2021/04/06 06:21:47;;;;;;;5.73;1.23;;;1.30;99.90;;;;;;5095566;28;20075;-72
2021/04/06 06:24:26;;;;;;;5.97;2.35;;;1.40;99.90;;;;;;5090283;28;20048;-70
2021/04/06 06:26:56;;;;;;;6.30;2.23;;;1.40;99.90;;;;;;5109295;28;20063;-71
2021/04/06 06:29:25;;;;;;;6.67;2.20;;;1.40;99.90;;;;;;5109535;28;20530;-72
2021/04/06 06:31:55;;;;;;;7.60;2.83;;;1.50;99.90;;;;;;5110275;28;20055;-71
2021/04/06 06:34:33;;;;;;;8.43;2.27;;;1.50;99.90;;;;;;5105987;28;20048;-73
2021/04/06 06:37:02;;;;;;;11.80;2.80;;;1.50;99.90;;;;;;5110574;28;20052;-73
2021/04/06 06:39:28;;;;;;;8.77;2.87;;;1.70;99.90;;;;;;5110798;28;20040;-71
2021/04/06 06:42:00;;;;;;;9.37;2.73;;;1.60;99.90;;;;;;5101992;28;20105;-71
2021/04/06 06:44:28;;;;;;;8.97;2.40;;;1.80;99.90;;;;;;5109264;28;20168;-71
2021/04/06 06:47:12;;;;;;;10.20;2.27;;;1.70;99.90;;;;;;5109747;28;20043;-71
2021/04/06 06:49:41;;;;;;;13.83;3.20;;;1.80;99.90;;;;;;5109355;28;20051;-71
2021/04/06 06:52:28;;;;;;;6.20;2.20;;;1.80;99.90;;;;;;5109520;28;20052;-73
2021/04/06 06:54:58;;;;;;;8.03;2.77;;;1.60;99.90;;;;;;5105494;28;20048;-74
2021/04/06 06:57:30;;;;;;;6.10;2.20;;;1.60;99.90;;;;;;5109188;28;20138;-71
2021/04/06 07:00:07;;;;;;;7.03;2.43;;;1.50;99.90;;;;;;5108823;28;20043;-76
2021/04/06 07:02:34;;;;;;;11.48;2.80;;;1.60;99.90;;;;;;5108831;28;20090;-70
2021/04/06 07:05:17;;;;;;;9.87;2.80;;;1.90;99.90;;;;;;5109449;28;20056;-70
2021/04/06 07:08:01;;;;;;;10.43;2.43;;;1.90;99.90;;;;;;5109703;28;20142;-71
2021/04/06 07:10:30;;;;;;;13.10;2.83;;;2.10;99.90;;;;;;5107917;28;20138;-71
2021/04/06 07:13:03;;;;;;;7.77;2.57;;;2.20;99.90;;;;;;5093134;28;20055;-72
2021/04/06 07:15:30;;;;;;;8.47;2.10;;;2.10;99.90;;;;;;5089544;28;20170;-71
2021/04/06 07:18:02;;;;;;;7.50;2.60;;;2.30;99.90;;;;;;5089431;28;20070;-71
2021/04/06 07:20:31;;;;;;;10.67;3.47;;;2.20;99.90;;;;;;5089302;28;20412;-73
2021/04/06 07:23:02;;;;;;;6.73;2.77;;;2.00;99.90;;;;;;5086973;28;20087;-72
2021/04/06 07:25:30;;;;;;;12.33;2.40;;;2.20;99.90;;;;;;5089067;28;20450;-76
2021/04/06 07:27:58;;;;;;;10.67;3.27;;;2.20;99.90;;;;;;5088988;28;20048;-71
2021/04/06 07:30:25;;;;;;;10.80;3.40;;;2.10;99.90;;;;;;5087531;28;20048;-71
2021/04/06 07:32:52;;;;;;;11.20;3.07;;;2.00;99.90;;;;;;5088305;28;20040;-76
2021/04/06 07:35:19;;;;;;;8.00;3.23;;;1.70;99.90;;;;;;5087991;28;20060;-71
2021/04/06 07:37:47;;;;;;;9.87;2.90;;;1.60;99.90;;;;;;5091121;28;20089;-73
2021/04/06 07:40:18;;;;;;;12.97;2.93;;;1.50;99.90;;;;;;5107852;28;20059;-71
2021/04/06 07:42:46;;;;;;;10.87;2.90;;;1.50;99.90;;;;;;5108174;28;20055;-71
2021/04/06 07:45:42;;;;;;;7.57;2.80;;;1.70;99.90;;;;;;5109003;28;20059;-73
2021/04/06 07:48:28;;;;;;;11.10;3.10;;;1.90;99.90;;;;;;5106839;28;20052;-74
2021/04/06 07:50:55;;;;;;;8.03;2.40;;;2.00;99.90;;;;;;5107965;28;20052;-71
2021/04/06 07:53:27;;;;;;;7.83;2.80;;;1.80;99.90;;;;;;5107819;28;20051;-75
2021/04/06 07:55:56;;;;;;;9.13;2.93;;;2.00;99.90;;;;;;5109472;28;20060;-71
2021/04/06 07:58:45;;;;;;;9.40;2.63;;;1.70;99.90;;;;;;5108539;28;20552;-72
2021/04/06 08:01:16;;;;;;;8.10;2.80;;;2.00;99.90;;;;;;5108541;28;20044;-75
2021/04/06 08:04:04;;;;;;;10.10;3.63;;;2.00;99.90;;;;;;5107785;28;20052;-71
2021/04/06 08:06:43;;;;;;;5.57;2.37;;;2.00;99.90;;;;;;5108174;28;20055;-76
2021/04/06 08:09:43;;;;;;;13.67;1.97;;;2.10;99.90;;;;;;5089371;28;20047;-70
2021/04/06 08:12:11;;;;;;;13.37;2.77;;;2.10;99.90;;;;;;5108719;28;20067;-71
2021/04/06 08:14:39;;;;;;;12.33;3.23;;;2.10;99.90;;;;;;5098509;28;20079;-71
2021/04/06 08:17:44;;;;;;;8.70;2.80;;;2.20;99.90;;;;;;5097650;28;20101;-70
2021/04/06 08:20:45;;;;;;;7.47;1.87;;;2.30;99.90;;;;;;5087532;28;20080;-71
2021/04/06 08:23:33;;;;;;;12.53;2.90;;;2.40;99.90;;;;;;5083204;28;20060;-74
2021/04/06 08:26:00;;;;;;;8.80;2.40;;;2.50;99.90;;;;;;5087576;28;20048;-74
2021/04/06 08:28:34;;;;;;;10.77;2.33;;;2.60;99.90;;;;;;5093334;28;20079;-71
2021/04/06 08:31:24;;;;;;;10.63;3.00;;;2.80;99.90;;;;;;5093539;28;20050;-70
2021/04/06 08:33:51;;;;;;;12.70;2.70;;;3.00;99.90;;;;;;5095031;28;20147;-71
2021/04/06 08:36:26;;;;;;;10.33;2.70;;;3.10;99.90;;;;;;5090039;28;20328;-70
2021/04/06 08:38:55;;;;;;;11.63;2.37;;;3.10;99.90;;;;;;5096103;28;20060;-74
2021/04/06 08:41:36;;;;;;;5.23;2.47;;;3.30;99.90;;;;;;5100798;28;20055;-72
2021/04/06 08:44:06;;;;;;;8.73;2.47;;;3.80;99.90;;;;;;5111417;28;20138;-71
2021/04/06 08:46:48;;;;;;;6.70;2.03;;;3.80;99.90;;;;;;5112021;28;20464;-72
2021/04/06 08:49:17;;;;;;;11.00;2.93;;;3.90;99.90;;;;;;5112115;28;20058;-70
2021/04/06 08:51:46;;;;;;;4.30;1.90;;;3.70;99.90;;;;;;5100545;28;20397;-71
2021/04/06 08:54:16;;;;;;;11.83;2.30;;;4.90;99.90;;;;;;5109673;28;20047;-72
2021/04/06 08:56:44;;;;;;;7.03;2.50;;;5.70;99.90;;;;;;5111878;28;20128;-71
2021/04/06 08:59:13;;;;;;;8.87;2.30;;;5.40;99.90;;;;;;5112004;28;20051;-71
2021/04/06 09:01:39;;;;;;;4.27;1.80;;;5.20;99.90;;;;;;5103414;28;20074;-71
2021/04/06 09:04:11;;;;;;;9.30;2.40;;;5.50;99.90;;;;;;5110759;28;20079;-71
2021/04/06 09:06:38;;;;;;;6.47;2.33;;;4.70;99.90;;;;;;5102051;28;20411;-71
2021/04/06 09:09:06;;;;;;;5.77;2.50;;;4.40;99.90;;;;;;5090902;28;20055;-75
2021/04/06 09:11:33;;;;;;;3.17;1.77;;;4.40;99.90;;;;;;5088084;28;20044;-69
2021/04/06 09:13:59;;;;;;;5.90;2.77;;;4.10;99.90;;;;;;5085858;28;20454;-69
2021/04/06 09:16:28;;;;;;;10.40;2.40;;;4.10;99.90;;;;;;5103479;28;20051;-68
2021/04/06 09:18:55;;;;;;;8.60;2.23;;;4.00;99.90;;;;;;5090325;28;20075;-69
2021/04/06 09:21:23;;;;;;;8.33;2.83;;;3.80;99.90;;;;;;5099791;28;20044;-70
2021/04/06 09:23:52;;;;;;;9.47;2.70;;;3.50;99.90;;;;;;5085620;28;20076;-69
2021/04/06 09:26:20;;;;;;;10.00;2.60;;;3.90;99.90;;;;;;5097319;28;20135;-68
2021/04/06 09:29:00;;;;;;;11.50;2.93;;;4.10;99.90;;;;;;5104138;28;20048;-68
2021/04/06 09:31:27;;;;;;;8.57;3.23;;;4.20;99.90;;;;;;5095070;28;20043;-71
2021/04/06 09:34:09;;;;;;;6.70;1.77;;;4.20;99.90;;;;;;5104938;28;20093;-71
2021/04/06 09:36:38;;;;;;;13.10;2.87;;;3.80;99.90;;;;;;5089314;28;20045;-72
2021/04/06 09:39:07;;;;;;;8.20;2.33;;;3.70;99.90;;;;;;5087755;28;20444;-72
2021/04/06 09:41:36;;;;;;;10.63;2.57;;;3.60;99.90;;;;;;5093427;28;20051;-72
2021/04/06 09:44:04;;;;;;;9.13;2.70;;;3.40;99.90;;;;;;5106726;28;20130;-72
2021/04/06 09:46:39;;;;;;;6.77;2.80;;;3.30;99.90;;;;;;5090026;28;20079;-72
2021/04/06 09:49:06;;;;;;;10.13;3.27;;;3.00;99.90;;;;;;5104365;28;20044;-69
2021/04/06 09:51:33;;;;;;;8.63;3.40;;;2.70;99.90;;;;;;5093828;28;20059;-69
2021/04/06 09:54:01;;;;;;;5.37;2.63;;;2.40;99.90;;;;;;5085689;28;20419;-71
2021/04/06 09:56:28;;;;;;;13.47;4.33;;;2.10;99.90;;;;;;5105545;28;20449;-69
2021/04/06 09:58:57;;;;;;;11.57;3.50;;;1.90;99.90;;;;;;5086375;28;20044;-70
2021/04/06 10:01:26;;;;;;;9.77;3.87;;;1.60;99.90;;;;;;5097269;28;20097;-70
2021/04/06 10:03:56;;;;;;;15.90;6.43;;;1.50;99.90;;;;;;5090293;28;20069;-77
2021/04/06 10:06:37;;;;;;;11.30;2.73;;;1.70;99.90;;;;;;5090912;28;20050;-72
2021/04/06 10:09:22;;;;;;;7.23;3.33;;;2.00;99.90;;;;;;5096807;28;20052;-73
2021/04/06 10:11:49;;;;;;;7.83;3.80;;;2.40;99.90;;;;;;5096958;28;20052;-72
2021/04/06 10:14:17;;;;;;;7.80;3.60;;;2.70;99.90;;;;;;5087678;28;20043;-74
2021/04/06 10:16:44;;;;;;;11.53;4.20;;;2.80;99.90;;;;;;5090999;28;20048;-73
2021/04/06 10:19:22;;;;;;;9.00;3.70;;;2.90;99.90;;;;;;5102851;28;20051;-72
2021/04/06 10:22:08;;;;;;;7.70;3.67;;;3.10;99.90;;;;;;5100084;28;20120;-72
2021/04/06 10:24:44;;;;;;;18.57;4.23;;;3.30;99.90;;;;;;5106914;28;20498;-72
2021/04/06 10:27:18;;;;;;;11.80;4.10;;;3.60;99.90;;;;;;5089426;28;20408;-76
2021/04/06 10:29:50;;;;;;;11.53;4.00;;;4.00;99.90;;;;;;5099127;28;20128;-73
2021/04/06 10:32:30;;;;;;;9.37;2.93;;;4.90;99.90;;;;;;5102470;28;20054;-77
2021/04/06 10:35:08;;;;;;;4.50;2.03;;;5.90;99.90;;;;;;5092953;28;20052;-72
2021/04/06 10:37:47;;;;;;;6.17;2.00;;;6.20;99.90;;;;;;5089579;28;20052;-78
2021/04/06 10:40:30;;;;;;;6.03;2.37;;;5.40;99.90;;;;;;5102823;28;20087;-76
2021/04/06 10:42:58;;;;;;;8.23;2.37;;;5.50;99.90;;;;;;5108037;28;20043;-75
2021/04/06 10:45:27;;;;;;;7.00;2.50;;;5.70;99.90;;;;;;5108397;28;20077;-72
2021/04/06 10:48:04;;;;;;;7.80;2.83;;;7.00;99.90;;;;;;5098950;28;20054;-76
2021/04/06 10:50:31;;;;;;;5.30;1.80;;;8.80;99.90;;;;;;5099212;28;20054;-76
2021/04/06 10:52:58;;;;;;;7.00;1.75;;;8.10;99.90;;;;;;5089712;28;20565;-74
2021/04/06 10:55:34;;;;;;;6.30;1.77;;;7.30;99.90;;;;;;5092785;28;20097;-78
2021/04/06 10:58:00;;;;;;;9.10;2.00;;;6.70;99.90;;;;;;5099406;28;20476;-72
2021/04/06 11:00:29;;;;;;;7.60;1.80;;;6.20;99.90;;;;;;5099913;28;20058;-72
2021/04/06 11:03:13;;;;;;;4.60;1.70;;;5.90;99.90;;;;;;5095869;28;20052;-73
2021/04/06 11:05:41;;;;;;;5.50;2.00;;;5.50;99.90;;;;;;5097990;28;20040;-73
2021/04/06 11:08:24;;;;;;;7.07;1.90;;;5.50;99.90;;;;;;5096198;28;20040;-74
2021/04/06 11:10:52;;;;;;;6.57;1.90;;;5.10;99.90;;;;;;5093631;28;20063;-76
2021/04/06 11:13:19;;;;;;;6.63;1.80;;;4.90;99.90;;;;;;5090669;28;20050;-72
2021/04/06 11:15:47;;;;;;;7.40;2.10;;;4.70;99.90;;;;;;5094353;28;20500;-76
2021/04/06 11:18:14;;;;;;;6.17;2.20;;;4.50;99.90;;;;;;5094690;28;20040;-72
2021/04/06 11:20:41;;;;;;;8.60;2.60;;;4.60;99.90;;;;;;5098205;28;20091;-77
2021/04/06 11:23:08;;;;;;;4.33;1.50;;;4.50;99.90;;;;;;5095302;28;20603;-73
2021/04/06 11:25:34;;;;;;;6.37;1.90;;;4.00;99.90;;;;;;5101065;28;20073;-72
2021/04/06 11:28:05;;;;;;;4.43;2.10;;;3.70;99.90;;;;;;5098578;28;20389;-73
2021/04/06 11:30:35;;;;;;;6.53;2.03;;;3.80;99.90;;;;;;5092175;28;20466;-73
2021/04/06 11:33:09;;;;;;;4.77;2.13;;;4.00;99.90;;;;;;5090856;28;20060;-71
2021/04/06 11:35:36;;;;;;;2.87;1.50;;;4.30;99.90;;;;;;5094788;28;20067;-70
2021/04/06 11:38:03;;;;;;;11.47;2.67;;;3.70;99.90;;;;;;5090500;28;20044;-70
2021/04/06 11:40:37;;;;;;;4.10;1.70;;;3.70;99.90;;;;;;5090843;28;20043;-76
2021/04/06 11:43:04;;;;;;;5.43;2.33;;;3.70;99.90;;;;;;5095620;28;20423;-73
2021/04/06 11:45:30;;;;;;;10.80;1.97;;;3.20;99.90;;;;;;5091353;28;20469;-73
2021/04/06 11:47:57;;;;;;;8.63;2.73;;;3.00;99.90;;;;;;5090926;28;20047;-74
2021/04/06 11:50:24;;;;;;;7.50;3.07;;;3.00;99.90;;;;;;5100375;28;20047;-72
2021/04/06 11:52:51;;;;;;;6.63;2.40;;;3.30;99.90;;;;;;5090904;28;20044;-73
2021/04/06 11:55:19;;;;;;;8.67;2.40;;;3.50;99.90;;;;;;5089824;28;20078;-75
2021/04/06 11:57:46;;;;;;;8.63;3.03;;;3.80;99.90;;;;;;5092125;28;20067;-72
2021/04/06 12:00:14;;;;;;;7.73;2.37;;;3.90;99.90;;;;;;5090080;28;20079;-75
2021/04/06 12:02:40;;;;;;;6.27;2.10;;;4.20;99.90;;;;;;5349456;22;22040;-68
2021/04/06 12:05:16;;;;;;;6.43;2.13;;;4.90;99.90;;;;;;5067306;28;20523;-68
2021/04/06 12:07:44;;;;;;;9.75;2.40;;;5.50;99.90;;;;;;5059028;28;20102;-68
2021/04/06 12:10:14;;;;;;;4.53;2.00;;;5.90;99.90;;;;;;5058589;28;20052;-68
2021/04/06 12:12:40;;;;;;;7.70;2.47;;;6.10;99.90;;;;;;5057919;28;20382;-68
2021/04/06 12:15:07;;;;;;;;;;;6.40;99.90;;;;;;5064959;28;20106;-68
2021/04/06 12:17:33;;;;;;;9.25;2.40;;;6.60;99.90;;;;;;5071561;28;19920;-68
2021/04/06 12:20:00;;;;;;;3.70;1.50;;;7.50;99.90;;;;;;5071852;28;20079;-68
2021/04/06 12:22:26;;;;;;;;;;;7.90;99.90;;;;;;5069061;28;20102;-68
2021/04/06 12:24:53;;;;;;;7.25;1.95;;;8.20;99.90;;;;;;5071543;28;19923;-69
2021/04/06 12:27:20;;;;;;;4.35;1.85;;;8.90;99.90;;;;;;5071812;28;20045;-68
2021/04/06 12:29:46;;;;;;;;;;;8.60;99.90;;;;;;5069075;28;20052;-69
2021/04/06 12:32:12;;;;;;;8.05;2.00;;;8.70;99.90;;;;;;5063682;28;19920;-68
2021/04/06 12:34:40;;;;;;;8.23;2.25;;;8.80;99.90;;;;;;5058906;28;20137;-69
2021/04/06 12:37:07;;;;;;;7.47;2.05;;;9.30;99.90;;;;;;5069250;28;20124;-69
2021/04/06 12:39:34;;;;;;;7.03;1.80;;;9.70;99.90;;;;;;5069612;28;20120;-69
2021/04/06 12:42:02;;;;;;;6.45;1.73;;;9.90;99.90;;;;;;5069838;28;20049;-69
2021/04/06 12:44:28;;;;;;;5.60;1.92;;;10.20;99.90;;;;;;5069661;28;20044;-70
2021/04/06 12:46:54;;;;;;;5.85;1.67;;;10.60;99.90;;;;;;5070974;28;20534;-69
2021/04/06 12:49:23;;;;;;;;;;;10.90;99.90;;;;;;5072482;28;20095;-69
2021/04/06 12:51:49;;;;;;;3.47;1.33;;;10.70;99.90;;;;;;5068277;28;20280;-70
2021/04/06 12:54:15;;;;;;;;;;;9.90;99.90;;;;;;5068710;28;20044;-69
2021/04/06 12:56:42;;;;;;;3.70;1.40;;;9.30;99.90;;;;;;5068953;28;19973;-69
2021/04/06 12:59:09;;;;;;;;;;;8.70;99.90;;;;;;5068127;28;20047;-69
2021/04/06 13:01:36;;;;;;;8.50;1.98;;;8.40;99.90;;;;;;5063344;28;19925;-69
2021/04/06 13:04:02;;;;;;;8.35;2.03;;;8.10;99.90;;;;;;5063562;28;20423;-69
2021/04/06 13:06:29;;;;;;;5.65;1.80;;;7.80;99.90;;;;;;5057294;28;20117;-69
2021/04/06 13:08:55;;;;;;;6.28;2.90;;;7.70;99.90;;;;;;5052084;28;20580;-69